Lake Charles, LA (70601)

3:18 PM CDT on March 24, 2017 (GMT -0500)
LCB Academy | | Change Station
Active Advisory: Wind Advisory

Elev 33 ft 30.22 °N, 93.20 °W | Updated 13 minutes ago

Overcast
Overcast
77.0 °F
Feels Like 75 °F
N
6.0
Wind Variable Wind from SE
Gusts 6.0 mph

Today
High -- | Low -- °F
--% Chance of Precip.
Yesterday
High -- | Low -- °F
Precip. -- in
Pressure 30.10 in
Visibility 10.0 miles
Clouds Scattered Clouds 2600 ft
Overcast 4400 ft
Heat Index 75 °F
Dew Point Not available.
Humidity Not available.
Rainfall 0.00 in
Snow Depth Not available.
7:11 AM 7:26 PM
Waning Crescent, 13% visible
METAR KCWF 241955Z 17016G21KT 10SM SCT026 OVC044 25/19 A3010
Pressure 30.10 in
Visibility 10.0 miles
Clouds Scattered Clouds 2600 ft
Overcast 4400 ft
Heat Index 75 °F
Dew Point Not available.
Humidity Not available.
Rainfall 0.00 in
Snow Depth Not available.
7:11 AM 7:26 PM
Waning Crescent, 13% visible
METAR KCWF 241955Z 17016G21KT 10SM SCT026 OVC044 25/19 A3010

Get Your Daily Forecast Email!

Thanks for signing up!

Be on the lookout for a verification email in your inbox.

You'll start receiving severe weather alerts in your inbox..

×

10-Day Weather Forecast

Almanac

Astronomy

Mar. 24, 2017 Rise Set
Actual Time
Civil Twilight
Nautical Twilight
Astronomical Twilight
Moon
Length of Visible Light
Length of Day
Tomorrow will be .
, % of the Moon is Illuminated

Today's Extremes

State Highs State Lows

Community

WunderPhotos

Upload Photos

1,962,540 photos uploaded!

WunderBlog® & News

Nearby

Air Quality

  Air Quality AQ Index Pollutant
Not available.

Snow Depth

Station Depth Elevation

Earthquake Activity

City Distance Mag. Time & Date
Minimum magnitude displayed is 2.5.

Earthquake Activity

City Distance Mag. Time & Date
Minimum magnitude displayed is 2.5.

Coastal Water Temperatures

Place Temperature

Stations

Nearby Weather Stations

Station Location Temp. Windchill Dew Point Humidity Wind Precip. Elev Updated Type
                   

Watches & Warnings

Wind Advisory
Issued: 3:14 PM CDT Mar. 24, 2017 – National Weather Service

... Wind Advisory remains in effect until 6 PM CDT this evening...

* timing... from late morning through the afternoon.

* Winds... south sustained 20 to 25 mph with gusts to 30 mph.

* Impacts... difficult driving conditions for high profile
vehicles especially on east-west roadways and on bridges and
overpasses. Loose lawn objects along with trash cans will be
blown around.

Precautionary/preparedness actions...

A Wind Advisory means that winds of 20 mph are expected. Winds
this strong can make driving difficult... especially for high
profile vehicles. Use extra caution.